Estación Meteorológica Peña el Pijo (Robertgarden) [ 07/21/18 15:55:14 CEST ]

Fecha Hora Presion(HPa) Temp (°C) Humedad % Rocio (°C) Viento ( m/s) Direccion Lluvia 1Hora(mm) Lluvia 24H(mm) LLuvia Total(mm)
2018-May-02 01:01:47 1005.600 2.6 73 -1.8       0.51 205.12
2018-May-02 02:01:11 1005.600 2.2 74 -2.0       0.51 205.12
2018-May-02 03:10:04 1005.700 1.8 75 -2.2       0.51 205.12
2018-May-02 04:04:09 1005.200 1.3 76 -2.5       0.51 205.12
2018-May-02 05:01:50 1005.400 1.3 78 -2.2       0.51 205.12
2018-May-02 06:01:50 1005.100 0.4 79 -2.8       0.51 205.12
2018-May-02 07:01:48 1005.400 0.4 80 -2.6       0.51 205.12
2018-May-02 08:01:56 1005.800 1.8 83 -0.8       0.51 205.12
2018-May-02 09:01:57 1006.000 7.8 79 4.4       0.51 205.12
2018-May-02 10:01:47 1005.800 11.1 58 3.1       0.51 205.12
2018-May-02 11:01:46 1006.100 12.7 47 1.6       0.51 205.12
2018-May-02 12:01:42 1006.100 14.9 41 1.7       0.51 205.12
2018-May-02 13:01:49 1005.900 17.3 36 2.0       0.51 205.12
2018-May-02 14:01:37 1005.500 16.3 35 0.7 3.4 N     205.12
2018-May-02 15:01:48 1005.300 16.3 35 0.7         205.12
2018-May-02 16:01:47 1005.000 15.9 35 0.3         205.12
2018-May-02 17:01:47 1004.800 17.9 32 0.9 3.8 N     205.12
2018-May-02 18:02:04 1005.000 17.6 34 1.4         205.12
2018-May-02 19:01:46 1005.200 14.6 40 1.1         205.12
2018-May-02 20:01:38 1005.300 11.9 46 0.6         205.12
2018-May-02 21:01:47 1005.400 10.4 50 0.5         205.12
2018-May-02 22:01:50 1005.700 8.5 57 0.4         205.12
2018-May-02 23:01:47 1006.100 7.3 62 0.5         205.12

Temperatura Máxima:17°    Temperatura Mínima:
Presión Máxima:1006.100 Hpa    Presión Mínima:1004.800 Hpa


Volver